sensor_id;sensor_type;location;lat;lon;timestamp;pressure;altitude;pressure_sealevel;temperature
64470;BMP280;50854;48.538;14.352;2022-09-01T01:46:18;93828.59;;;11.99
64470;BMP280;50854;48.538;14.352;2022-09-01T01:47:19;93836.50;;;11.97
64470;BMP280;50854;48.538;14.352;2022-09-01T01:48:21;93830.16;;;11.95
64470;BMP280;50854;48.538;14.352;2022-09-01T01:49:26;93831.44;;;11.94
64470;BMP280;50854;48.538;14.352;2022-09-01T01:50:31;93829.03;;;11.90
64470;BMP280;50854;48.538;14.352;2022-09-01T01:51:34;93828.06;;;11.88
64470;BMP280;50854;48.538;14.352;2022-09-01T01:52:36;93831.50;;;11.88
64470;BMP280;50854;48.538;14.352;2022-09-01T01:53:37;93825.19;;;11.86
64470;BMP280;50854;48.538;14.352;2022-09-01T01:54:37;93825.47;;;11.82
64470;BMP280;50854;48.538;14.352;2022-09-01T01:55:39;93818.59;;;11.81
64470;BMP280;50854;48.538;14.352;2022-09-01T01:56:40;93825.81;;;11.78
64470;BMP280;50854;48.538;14.352;2022-09-01T01:57:41;93830.47;;;11.78
64470;BMP280;50854;48.538;14.352;2022-09-01T01:58:47;93823.63;;;11.77
64470;BMP280;50854;48.538;14.352;2022-09-01T01:59:48;93822.88;;;11.76
64470;BMP280;50854;48.538;14.352;2022-09-01T02:00:51;93829.03;;;11.77
64470;BMP280;50854;48.538;14.352;2022-09-01T02:01:52;93823.63;;;11.77
64470;BMP280;50854;48.538;14.352;2022-09-01T02:02:52;93820.19;;;11.76
64470;BMP280;50854;48.538;14.352;2022-09-01T02:03:55;93820.06;;;11.82
64470;BMP280;50854;48.538;14.352;2022-09-01T02:04:56;93819.75;;;11.86
64470;BMP280;50854;48.538;14.352;2022-09-01T02:05:56;93819.75;;;11.86
64470;BMP280;50854;48.538;14.352;2022-09-01T02:07:03;93816.00;;;11.89
64470;BMP280;50854;48.538;14.352;2022-09-01T02:08:07;93820.91;;;11.90
64470;BMP280;50854;48.538;14.352;2022-09-01T02:09:08;93820.91;;;11.90
64470;BMP280;50854;48.538;14.352;2022-09-01T02:10:08;93814.97;;;11.92
64470;BMP280;50854;48.538;14.352;2022-09-01T02:11:09;93822.34;;;11.91
64470;BMP280;50854;48.538;14.352;2022-09-01T02:12:10;93819.03;;;11.85
64470;BMP280;50854;48.538;14.352;2022-09-01T02:13:13;93824.66;;;11.74
64470;BMP280;50854;48.538;14.352;2022-09-01T02:14:16;93818.72;;;11.62
64470;BMP280;50854;48.538;14.352;2022-09-01T02:15:20;93817.16;;;11.67
64470;BMP280;50854;48.538;14.352;2022-09-01T02:16:22;93815.81;;;11.73
64470;BMP280;50854;48.538;14.352;2022-09-01T02:17:23;93825.59;;;11.76
64470;BMP280;50854;48.538;14.352;2022-09-01T02:18:25;93816.53;;;11.74
64470;BMP280;50854;48.538;14.352;2022-09-01T02:19:27;93820.41;;;11.78
64470;BMP280;50854;48.538;14.352;2022-09-01T02:20:27;93817.69;;;11.78
64470;BMP280;50854;48.538;14.352;2022-09-01T02:21:28;93823.50;;;11.82
64470;BMP280;50854;48.538;14.352;2022-09-01T02:22:29;93818.91;;;11.77
64470;BMP280;50854;48.538;14.352;2022-09-01T02:23:29;93822.88;;;11.76
64470;BMP280;50854;48.538;14.352;2022-09-01T02:24:30;93825.06;;;11.78
64470;BMP280;50854;48.538;14.352;2022-09-01T02:25:31;93824.34;;;11.77
64470;BMP280;50854;48.538;14.352;2022-09-01T02:26:34;93820.41;;;11.78
64470;BMP280;50854;48.538;14.352;2022-09-01T02:27:37;93814.75;;;11.76
64470;BMP280;50854;48.538;14.352;2022-09-01T02:28:39;93818.91;;;11.77
64470;BMP280;50854;48.538;14.352;2022-09-01T02:29:41;93821.13;;;11.79
64470;BMP280;50854;48.538;14.352;2022-09-01T02:30:46;93816.63;;;11.81
64470;BMP280;50854;48.538;14.352;2022-09-01T02:31:50;93809.97;;;11.82
64470;BMP280;50854;48.538;14.352;2022-09-01T02:32:51;93819.75;;;11.86
64470;BMP280;50854;48.538;14.352;2022-09-01T02:33:51;93819.25;;;11.87
64470;BMP280;50854;48.538;14.352;2022-09-01T02:34:53;93814.75;;;11.90
64470;BMP280;50854;48.538;14.352;2022-09-01T02:36:03;93814.44;;;11.93
64470;BMP280;50854;48.538;14.352;2022-09-01T02:37:04;93808.69;;;11.97
64470;BMP280;50854;48.538;14.352;2022-09-01T02:38:05;93807.13;;;11.88
64470;BMP280;50854;48.538;14.352;2022-09-01T02:39:06;93811.50;;;11.91
64470;BMP280;50854;48.538;14.352;2022-09-01T02:40:08;93804.78;;;11.85
64470;BMP280;50854;48.538;14.352;2022-09-01T02:41:09;93816.31;;;11.85
64470;BMP280;50854;48.538;14.352;2022-09-01T02:42:12;93812.53;;;11.88
64470;BMP280;50854;48.538;14.352;2022-09-01T02:43:15;93808.94;;;11.86
64470;BMP280;50854;48.538;14.352;2022-09-01T02:44:19;93813.50;;;11.77
64470;BMP280;50854;48.538;14.352;2022-09-01T02:45:21;93812.19;;;11.71
64470;BMP280;50854;48.538;14.352;2022-09-01T02:46:23;93807.16;;;11.75
64470;BMP280;50854;48.538;14.352;2022-09-01T02:47:24;93807.69;;;11.73
64470;BMP280;50854;48.538;14.352;2022-09-01T02:48:31;93801.63;;;11.67
64470;BMP280;50854;48.538;14.352;2022-09-01T02:49:34;93807.81;;;11.68
64470;BMP280;50854;48.538;14.352;2022-09-01T02:50:36;93808.31;;;11.66
64470;BMP280;50854;48.538;14.352;2022-09-01T02:51:37;93804.34;;;11.67
64470;BMP280;50854;48.538;14.352;2022-09-01T02:52:38;93802.06;;;11.58
64470;BMP280;50854;48.538;14.352;2022-09-01T02:53:40;93808.75;;;11.57
64470;BMP280;50854;48.538;14.352;2022-09-01T02:54:41;93811.03;;;11.53
64470;BMP280;50854;48.538;14.352;2022-09-01T02:55:44;93801.25;;;11.50
64470;BMP280;50854;48.538;14.352;2022-09-01T02:56:45;93805.22;;;11.49
64470;BMP280;50854;48.538;14.352;2022-09-01T02:57:49;93806.13;;;11.51
64470;BMP280;50854;48.538;14.352;2022-09-01T02:58:50;93804.56;;;11.56
64470;BMP280;50854;48.538;14.352;2022-09-01T02:59:51;93804.16;;;11.52
64470;BMP280;50854;48.538;14.352;2022-09-01T03:00:53;93808.09;;;11.51
64470;BMP280;50854;48.538;14.352;2022-09-01T03:01:53;93809.47;;;11.58
64470;BMP280;50854;48.538;14.352;2022-09-01T03:02:56;93807.69;;;11.60
64470;BMP280;50854;48.538;14.352;2022-09-01T03:04:00;93803.84;;;11.56
64470;BMP280;50854;48.538;14.352;2022-09-01T03:05:01;93808.94;;;11.59
64470;BMP280;50854;48.538;14.352;2022-09-01T03:06:01;93803.84;;;11.56
64470;BMP280;50854;48.538;14.352;2022-09-01T03:07:03;93812.09;;;11.63
64470;BMP280;50854;48.538;14.352;2022-09-01T03:08:08;93813.31;;;11.62
64470;BMP280;50854;48.538;14.352;2022-09-01T03:09:12;93810.00;;;11.56
64470;BMP280;50854;48.538;14.352;2022-09-01T03:10:13;93815.09;;;11.60
64470;BMP280;50854;48.538;14.352;2022-09-01T03:11:15;93811.84;;;11.61
64470;BMP280;50854;48.538;14.352;2022-09-01T03:12:15;93814.97;;;11.65
64470;BMP280;50854;48.538;14.352;2022-09-01T03:13:21;93817.38;;;11.69
64470;BMP280;50854;48.538;14.352;2022-09-01T03:14:22;93819.56;;;11.70
64470;BMP280;50854;48.538;14.352;2022-09-01T03:15:23;93824.25;;;11.70
64470;BMP280;50854;48.538;14.352;2022-09-01T03:16:23;93824.13;;;11.75
64470;BMP280;50854;48.538;14.352;2022-09-01T03:17:24;93819.25;;;11.74
64470;BMP280;50854;48.538;14.352;2022-09-01T03:18:24;93818.91;;;11.77
64470;BMP280;50854;48.538;14.352;2022-09-01T03:19:25;93810.81;;;11.77
64470;BMP280;50854;48.538;14.352;2022-09-01T03:20:27;93813.91;;;11.81
64470;BMP280;50854;48.538;14.352;2022-09-01T03:21:30;93818.59;;;11.81
64470;BMP280;50854;48.538;14.352;2022-09-01T03:22:31;93812.28;;;11.78
64470;BMP280;50854;48.538;14.352;2022-09-01T03:23:33;93816.63;;;11.81
64470;BMP280;50854;48.538;14.352;2022-09-01T03:24:34;93813.91;;;11.81
64470;BMP280;50854;48.538;14.352;2022-09-01T03:25:35;93815.16;;;11.80
64470;BMP280;50854;48.538;14.352;2022-09-01T03:26:36;93819.34;;;11.81
64470;BMP280;50854;48.538;14.352;2022-09-01T03:27:36;93815.00;;;11.78
64470;BMP280;50854;48.538;14.352;2022-09-01T03:28:37;93810.91;;;11.72
64470;BMP280;50854;48.538;14.352;2022-09-01T03:29:37;93814.75;;;11.76
64470;BMP280;50854;48.538;14.352;2022-09-01T03:30:44;93803.41;;;11.78
64470;BMP280;50854;48.538;14.352;2022-09-01T03:31:45;93811.72;;;11.80
64470;BMP280;50854;48.538;14.352;2022-09-01T03:32:45;93799.38;;;11.71
64470;BMP280;50854;48.538;14.352;2022-09-01T03:33:47;93808.31;;;11.66
64470;BMP280;50854;48.538;14.352;2022-09-01T03:34:47;93803.97;;;11.63
64470;BMP280;50854;48.538;14.352;2022-09-01T03:35:48;93810.84;;;11.64
64470;BMP280;50854;48.538;14.352;2022-09-01T03:36:49;93814.16;;;11.57
64470;BMP280;50854;48.538;14.352;2022-09-01T03:37:50;93812.91;;;11.58
64470;BMP280;50854;48.538;14.352;2022-09-01T03:38:51;93807.28;;;11.56
64470;BMP280;50854;48.538;14.352;2022-09-01T03:39:52;93813.44;;;11.57
64470;BMP280;50854;48.538;14.352;2022-09-01T03:40:56;93808.09;;;11.51
64470;BMP280;50854;48.538;14.352;2022-09-01T03:42:01;93809.56;;;11.52
64470;BMP280;50854;48.538;14.352;2022-09-01T03:43:04;93808.53;;;11.55
64470;BMP280;50854;48.538;14.352;2022-09-01T03:44:05;93812.50;;;11.54
64470;BMP280;50854;48.538;14.352;2022-09-01T03:45:06;93819.66;;;11.51
64470;BMP280;50854;48.538;14.352;2022-09-01T03:46:08;93814.47;;;11.54
64470;BMP280;50854;48.538;14.352;2022-09-01T03:47:10;93821.13;;;11.52
64470;BMP280;50854;48.538;14.352;2022-09-01T03:48:14;93820.81;;;11.56
64470;BMP280;50854;48.538;14.352;2022-09-01T03:49:16;93822.59;;;11.54
64470;BMP280;50854;48.538;14.352;2022-09-01T03:50:24;93815.81;;;11.60
64470;BMP280;50854;48.538;14.352;2022-09-01T03:51:25;93825.63;;;11.63
64470;BMP280;50854;48.538;14.352;2022-09-01T03:52:26;93814.97;;;11.65
64470;BMP280;50854;48.538;14.352;2022-09-01T03:53:32;93820.38;;;11.65
64470;BMP280;50854;48.538;14.352;2022-09-01T03:54:35;93823.09;;;11.65
64470;BMP280;50854;48.538;14.352;2022-09-01T03:55:36;93822.78;;;11.56
64470;BMP280;50854;48.538;14.352;2022-09-01T03:56:37;93819.97;;;11.61
64470;BMP280;50854;48.538;14.352;2022-09-01T03:57:40;93817.25;;;11.61
64470;BMP280;50854;48.538;14.352;2022-09-01T03:58:42;93820.22;;;11.63
64470;BMP280;50854;48.538;14.352;2022-09-01T03:59:46;93816.25;;;11.64
64470;BMP280;50854;48.538;14.352;2022-09-01T04:00:50;93822.38;;;11.65
64470;BMP280;50854;48.538;14.352;2022-09-01T04:01:54;93822.38;;;11.65
64470;BMP280;50854;48.538;14.352;2022-09-01T04:02:57;93816.53;;;11.61
64470;BMP280;50854;48.538;14.352;2022-09-01T04:03:58;93809.47;;;11.58
64470;BMP280;50854;48.538;14.352;2022-09-01T04:05:00;93805.31;;;11.57
64470;BMP280;50854;48.538;14.352;2022-09-01T04:06:01;93814.34;;;11.59
64470;BMP280;50854;48.538;14.352;2022-09-01T04:07:01;93808.75;;;11.57
64470;BMP280;50854;48.538;14.352;2022-09-01T04:08:06;93806.75;;;11.58
64470;BMP280;50854;48.538;14.352;2022-09-01T04:09:09;93811.13;;;11.61
64470;BMP280;50854;48.538;14.352;2022-09-01T04:10:10;93816.25;;;11.64
64470;BMP280;50854;48.538;14.352;2022-09-01T04:11:15;93806.44;;;11.61
64470;BMP280;50854;48.538;14.352;2022-09-01T04:12:17;93800.00;;;11.64
64470;BMP280;50854;48.538;14.352;2022-09-01T04:13:20;93800.91;;;11.67
64470;BMP280;50854;48.538;14.352;2022-09-01T04:14:21;93809.75;;;11.67
64470;BMP280;50854;48.538;14.352;2022-09-01T04:15:21;93808.00;;;11.70
64470;BMP280;50854;48.538;14.352;2022-09-01T04:16:26;93807.47;;;11.71
64470;BMP280;50854;48.538;14.352;2022-09-01T04:17:46;93808.94;;;11.72
64470;BMP280;50854;48.538;14.352;2022-09-01T04:19:05;93806.13;;;11.65
64470;BMP280;50854;48.538;14.352;2022-09-01T04:20:15;93811.00;;;11.66
64470;BMP280;50854;48.538;14.352;2022-09-01T04:21:19;93813.72;;;11.66
64470;BMP280;50854;48.538;14.352;2022-09-01T04:22:19;93804.88;;;11.66
64470;BMP280;50854;48.538;14.352;2022-09-01T04:23:25;93801.75;;;11.62
64470;BMP280;50854;48.538;14.352;2022-09-01T04:24:27;93803.31;;;11.57
64470;BMP280;50854;48.538;14.352;2022-09-01T04:25:28;93808.53;;;11.55
64470;BMP280;50854;48.538;14.352;2022-09-01T04:26:28;93810.00;;;11.56
64470;BMP280;50854;48.538;14.352;2022-09-01T04:27:30;93810.31;;;11.52
64470;BMP280;50854;48.538;14.352;2022-09-01T04:28:32;93806.34;;;11.54
64470;BMP280;50854;48.538;14.352;2022-09-01T04:29:33;93801.66;;;11.54
64470;BMP280;50854;48.538;14.352;2022-09-01T04:30:34;93805.63;;;11.53
64470;BMP280;50854;48.538;14.352;2022-09-01T04:31:36;93807.50;;;11.58
64470;BMP280;50854;48.538;14.352;2022-09-01T04:32:41;93804.38;;;11.54
64470;BMP280;50854;48.538;14.352;2022-09-01T04:33:47;93808.22;;;11.59
64470;BMP280;50854;48.538;14.352;2022-09-01T04:34:48;93807.41;;;11.64
64470;BMP280;50854;48.538;14.352;2022-09-01T04:35:49;93799.78;;;11.62
64470;BMP280;50854;48.538;14.352;2022-09-01T04:36:51;93805.41;;;11.64
64470;BMP280;50854;48.538;14.352;2022-09-01T04:37:53;93808.31;;;11.66
64470;BMP280;50854;48.538;14.352;2022-09-01T04:38:56;93812.81;;;11.64
64470;BMP280;50854;48.538;14.352;2022-09-01T04:39:57;93813.00;;;11.66
64470;BMP280;50854;48.538;14.352;2022-09-01T04:40:58;93816.25;;;11.64
64470;BMP280;50854;48.538;14.352;2022-09-01T04:42:02;93807.28;;;11.69
64470;BMP280;50854;48.538;14.352;2022-09-01T04:43:05;93811.53;;;11.65
64470;BMP280;50854;48.538;14.352;2022-09-01T04:44:07;93805.59;;;11.66
64470;BMP280;50854;48.538;14.352;2022-09-01T04:45:08;93817.06;;;11.72
64470;BMP280;50854;48.538;14.352;2022-09-01T04:46:10;93816.00;;;11.75
64470;BMP280;50854;48.538;14.352;2022-09-01T04:47:13;93810.81;;;11.77
64470;BMP280;50854;48.538;14.352;2022-09-01T04:48:18;93815.72;;;11.79
64470;BMP280;50854;48.538;14.352;2022-09-01T04:49:19;93813.19;;;11.81
64470;BMP280;50854;48.538;14.352;2022-09-01T04:50:21;93813.50;;;11.77
64470;BMP280;50854;48.538;14.352;2022-09-01T04:51:23;93812.47;;;11.80
64470;BMP280;50854;48.538;14.352;2022-09-01T04:52:27;93807.25;;;11.82
64470;BMP280;50854;48.538;14.352;2022-09-01T04:53:27;93809.97;;;11.82
64470;BMP280;50854;48.538;14.352;2022-09-01T04:54:28;93812.88;;;11.85
64470;BMP280;50854;48.538;14.352;2022-09-01T04:55:29;93812.88;;;11.85
64470;BMP280;50854;48.538;14.352;2022-09-01T04:56:30;93807.69;;;11.87
64470;BMP280;50854;48.538;14.352;2022-09-01T04:57:35;93806.41;;;11.88
64470;BMP280;50854;48.538;14.352;2022-09-01T04:58:36;93810.16;;;11.98
64470;BMP280;50854;48.538;14.352;2022-09-01T04:59:36;93807.66;;;12.00
64470;BMP280;50854;48.538;14.352;2022-09-01T05:00:36;93812.66;;;11.96
64470;BMP280;50854;48.538;14.352;2022-09-01T05:01:38;93808.88;;;11.99
64470;BMP280;50854;48.538;14.352;2022-09-01T05:02:42;93814.53;;;12.01
64470;BMP280;50854;48.538;14.352;2022-09-01T05:03:45;93813.88;;;12.08
64470;BMP280;50854;48.538;14.352;2022-09-01T05:04:47;93815.25;;;12.15
64470;BMP280;50854;48.538;14.352;2022-09-01T05:05:49;93810.72;;;12.17
64470;BMP280;50854;48.538;14.352;2022-09-01T05:06:52;93812.19;;;12.18
64470;BMP280;50854;48.538;14.352;2022-09-01T05:07:55;93815.41;;;12.17
64470;BMP280;50854;48.538;14.352;2022-09-01T05:08:56;93817.81;;;12.20
64470;BMP280;50854;48.538;14.352;2022-09-01T05:09:57;93821.03;;;12.19
64470;BMP280;50854;48.538;14.352;2022-09-01T05:11:02;93817.28;;;12.22
64470;BMP280;50854;48.538;14.352;2022-09-01T05:12:06;93818.91;;;12.25
64470;BMP280;50854;48.538;14.352;2022-09-01T05:13:12;93812.78;;;12.24
64470;BMP280;50854;48.538;14.352;2022-09-01T05:14:12;93818.75;;;12.23
64470;BMP280;50854;48.538;14.352;2022-09-01T05:15:14;93819.47;;;12.23
64470;BMP280;50854;48.538;14.352;2022-09-01T05:16:18;93823.38;;;12.15
64470;BMP280;50854;48.538;14.352;2022-09-01T05:17:20;93817.00;;;12.12
64470;BMP280;50854;48.538;14.352;2022-09-01T05:18:21;93820.44;;;12.12
64470;BMP280;50854;48.538;14.352;2022-09-01T05:19:27;93816.25;;;12.11
64470;BMP280;50854;48.538;14.352;2022-09-01T05:20:28;93826.25;;;12.17
64470;BMP280;50854;48.538;14.352;2022-09-01T05:21:31;93823.13;;;12.12
64470;BMP280;50854;48.538;14.352;2022-09-01T05:22:32;93817.41;;;12.03
64470;BMP280;50854;48.538;14.352;2022-09-01T05:23:32;93824.09;;;12.02
64470;BMP280;50854;48.538;14.352;2022-09-01T05:24:33;93824.75;;;11.95
64470;BMP280;50854;48.538;14.352;2022-09-01T05:25:39;93822.88;;;11.90
64470;BMP280;50854;48.538;14.352;2022-09-01T05:26:41;93828.28;;;11.90
64470;BMP280;50854;48.538;14.352;2022-09-01T05:27:43;93823.19;;;11.86
64470;BMP280;50854;48.538;14.352;2022-09-01T05:28:51;93821.94;;;11.87
64470;BMP280;50854;48.538;14.352;2022-09-01T05:29:53;93823.94;;;11.87
64470;BMP280;50854;48.538;14.352;2022-09-01T05:30:53;93823.72;;;11.85
64470;BMP280;50854;48.538;14.352;2022-09-01T05:31:54;93816.94;;;11.78
64470;BMP280;50854;48.538;14.352;2022-09-01T05:32:54;93823.53;;;11.69
64470;BMP280;50854;48.538;14.352;2022-09-01T05:33:55;93816.13;;;11.70
64470;BMP280;50854;48.538;14.352;2022-09-01T05:34:57;93820.81;;;11.69
64470;BMP280;50854;48.538;14.352;2022-09-01T05:35:58;93819.78;;;11.72
64470;BMP280;50854;48.538;14.352;2022-09-01T05:37:02;93823.19;;;11.73
64470;BMP280;50854;48.538;14.352;2022-09-01T05:38:04;93825.38;;;11.74
64470;BMP280;50854;48.538;14.352;2022-09-01T05:39:08;93819.97;;;11.74
64470;BMP280;50854;48.538;14.352;2022-09-01T05:40:11;93819.03;;;11.72
64470;BMP280;50854;48.538;14.352;2022-09-01T05:41:17;93817.69;;;11.65
64470;BMP280;50854;48.538;14.352;2022-09-01T05:42:19;93820.09;;;11.56
64470;BMP280;50854;48.538;14.352;2022-09-01T05:43:20;93821.63;;;11.51
64470;BMP280;50854;48.538;14.352;2022-09-01T05:44:22;93817.19;;;11.54
64470;BMP280;50854;48.538;14.352;2022-09-01T05:45:23;93812.25;;;11.52
64470;BMP280;50854;48.538;14.352;2022-09-01T05:46:25;93813.75;;;11.53
64470;BMP280;50854;48.538;14.352;2022-09-01T05:47:27;93811.44;;;11.57
64470;BMP280;50854;48.538;14.352;2022-09-01T05:48:28;93815.81;;;11.60
64470;BMP280;50854;48.538;14.352;2022-09-01T05:49:30;93819.66;;;11.65
64470;BMP280;50854;48.538;14.352;2022-09-01T05:50:32;93816.66;;;11.55
64470;BMP280;50854;48.538;14.352;2022-09-01T05:51:32;93816.84;;;11.57
64470;BMP280;50854;48.538;14.352;2022-09-01T05:52:36;93820.38;;;11.65
64470;BMP280;50854;48.538;14.352;2022-09-01T05:53:37;93811.97;;;11.69
64470;BMP280;50854;48.538;14.352;2022-09-01T05:54:37;93817.78;;;11.73
64470;BMP280;50854;48.538;14.352;2022-09-01T05:55:38;93821.97;;;11.74
64470;BMP280;50854;48.538;14.352;2022-09-01T05:56:38;93815.72;;;11.79
64470;BMP280;50854;48.538;14.352;2022-09-01T05:57:40;93817.59;;;11.84
64470;BMP280;50854;48.538;14.352;2022-09-01T05:58:41;93820.06;;;11.82
64470;BMP280;50854;48.538;14.352;2022-09-01T05:59:43;93824.31;;;11.91
64470;BMP280;50854;48.538;14.352;2022-09-01T06:00:46;93831.44;;;11.94
64470;BMP280;50854;48.538;14.352;2022-09-01T06:01:48;93819.13;;;11.93
64470;BMP280;50854;48.538;14.352;2022-09-01T06:02:48;93818.81;;;11.83
64470;BMP280;50854;48.538;14.352;2022-09-01T06:03:50;93821.94;;;11.87
64470;BMP280;50854;48.538;14.352;2022-09-01T06:04:53;93817.66;;;11.92
64470;BMP280;50854;48.538;14.352;2022-09-01T06:06:03;93821.31;;;11.94
64470;BMP280;50854;48.538;14.352;2022-09-01T06:07:10;93819.31;;;11.95
64470;BMP280;50854;48.538;14.352;2022-09-01T06:08:13;93825.25;;;11.93
64470;BMP280;50854;48.538;14.352;2022-09-01T06:09:16;93824.66;;;11.87
64470;BMP280;50854;48.538;14.352;2022-09-01T06:10:22;93827.38;;;11.87
64470;BMP280;50854;48.538;14.352;2022-09-01T06:11:26;93825.19;;;11.86
64470;BMP280;50854;48.538;14.352;2022-09-01T06:12:27;93828.63;;;11.86
64470;BMP280;50854;48.538;14.352;2022-09-01T06:13:28;93833.31;;;11.86
64470;BMP280;50854;48.538;14.352;2022-09-01T06:14:29;93829.53;;;11.89
64470;BMP280;50854;48.538;14.352;2022-09-01T06:15:29;93826.84;;;11.89
64470;BMP280;50854;48.538;14.352;2022-09-01T06:16:30;93826.50;;;11.92
64470;BMP280;50854;48.538;14.352;2022-09-01T06:17:31;93832.78;;;12.00
64470;BMP280;50854;48.538;14.352;2022-09-01T06:18:31;93839.31;;;12.05
64470;BMP280;50854;48.538;14.352;2022-09-01T06:19:33;93825.44;;;12.08
64470;BMP280;50854;48.538;14.352;2022-09-01T06:20:37;93834.50;;;12.11
64470;BMP280;50854;48.538;14.352;2022-09-01T06:21:39;93827.81;;;12.12
64470;BMP280;50854;48.538;14.352;2022-09-01T06:22:39;93821.69;;;12.11
64470;BMP280;50854;48.538;14.352;2022-09-01T06:23:41;93828.03;;;12.14
64470;BMP280;50854;48.538;14.352;2022-09-01T06:24:41;93827.19;;;12.19
64470;BMP280;50854;48.538;14.352;2022-09-01T06:25:43;93828.13;;;12.22
64470;BMP280;50854;48.538;14.352;2022-09-01T06:26:45;93836.84;;;12.28
64470;BMP280;50854;48.538;14.352;2022-09-01T06:27:47;93828.94;;;12.30
64470;BMP280;50854;48.538;14.352;2022-09-01T06:28:47;93834.25;;;12.35
64470;BMP280;50854;48.538;14.352;2022-09-01T06:29:48;93844.22;;;12.40
64470;BMP280;50854;48.538;14.352;2022-09-01T06:30:52;93835.63;;;12.50
64470;BMP280;50854;48.538;14.352;2022-09-01T06:31:53;93833.13;;;12.52
64470;BMP280;50854;48.538;14.352;2022-09-01T06:32:55;93840.44;;;12.57
64470;BMP280;50854;48.538;14.352;2022-09-01T06:33:56;93834.88;;;12.62
64470;BMP280;50854;48.538;14.352;2022-09-01T06:34:59;93833.63;;;12.63
64470;BMP280;50854;48.538;14.352;2022-09-01T06:36:00;93833.69;;;12.71
64470;BMP280;50854;48.538;14.352;2022-09-01T06:37:03;93840.56;;;12.72
64470;BMP280;50854;48.538;14.352;2022-09-01T06:38:05;93835.91;;;12.59
64470;BMP280;50854;48.538;14.352;2022-09-01T06:39:07;93837.59;;;12.62
64470;BMP280;50854;48.538;14.352;2022-09-01T06:40:08;93839.81;;;12.71
64470;BMP280;50854;48.538;14.352;2022-09-01T06:41:16;93835.31;;;12.74
64470;BMP280;50854;48.538;14.352;2022-09-01T06:42:18;93840.22;;;12.76
64470;BMP280;50854;48.538;14.352;2022-09-01T06:43:19;93835.59;;;12.84
64470;BMP280;50854;48.538;14.352;2022-09-01T06:44:20;93836.72;;;12.88
64470;BMP280;50854;48.538;14.352;2022-09-01T06:45:23;93833.00;;;12.99
64470;BMP280;50854;48.538;14.352;2022-09-01T06:46:23;93841.19;;;13.07
64470;BMP280;50854;48.538;14.352;2022-09-01T06:47:27;93833.47;;;13.11
64470;BMP280;50854;48.538;14.352;2022-09-01T06:48:30;93847.84;;;13.19
64470;BMP280;50854;48.538;14.352;2022-09-01T06:49:30;93844.91;;;13.17
64470;BMP280;50854;48.538;14.352;2022-09-01T06:50:35;93850.97;;;13.30
64470;BMP280;50854;48.538;14.352;2022-09-01T06:51:36;93849.28;;;13.48
64470;BMP280;50854;48.538;14.352;2022-09-01T06:52:37;93847.56;;;13.66
64470;BMP280;50854;48.538;14.352;2022-09-01T06:53:43;93853.34;;;13.62
64470;BMP280;50854;48.538;14.352;2022-09-01T06:54:44;93851.84;;;13.54
64470;BMP280;50854;48.538;14.352;2022-09-01T06:55:47;93852.78;;;13.56
64470;BMP280;50854;48.538;14.352;2022-09-01T06:56:48;93851.53;;;13.57
64470;BMP280;50854;48.538;14.352;2022-09-01T06:57:48;93853.34;;;13.62
64470;BMP280;50854;48.538;14.352;2022-09-01T06:58:52;93857.22;;;13.75
64470;BMP280;50854;48.538;14.352;2022-09-01T06:59:52;93847.13;;;13.83
64470;BMP280;50854;48.538;14.352;2022-09-01T07:00:53;93859.59;;;13.86
64470;BMP280;50854;48.538;14.352;2022-09-01T07:01:53;93851.47;;;13.86
64470;BMP280;50854;48.538;14.352;2022-09-01T07:02:55;93855.44;;;13.85
64470;BMP280;50854;48.538;14.352;2022-09-01T07:03:57;93857.09;;;13.88
64470;BMP280;50854;48.538;14.352;2022-09-01T07:04:58;93859.81;;;13.88
64470;BMP280;50854;48.538;14.352;2022-09-01T07:05:58;93851.28;;;13.84
64470;BMP280;50854;48.538;14.352;2022-09-01T07:06:59;93855.06;;;13.81
64470;BMP280;50854;48.538;14.352;2022-09-01T07:08:03;93860.50;;;13.81
64470;BMP280;50854;48.538;14.352;2022-09-01T07:09:06;93855.13;;;13.88
64470;BMP280;50854;48.538;14.352;2022-09-01T07:10:07;93857.28;;;13.90
64470;BMP280;50854;48.538;14.352;2022-09-01T07:11:16;93849.53;;;13.94
64470;BMP280;50854;48.538;14.352;2022-09-01T07:12:26;93856.25;;;14.01
64470;BMP280;50854;48.538;14.352;2022-09-01T07:13:27;93850.81;;;14.01
64470;BMP280;50854;48.538;14.352;2022-09-01T07:14:27;93854.84;;;14.07
64470;BMP280;50854;48.538;14.352;2022-09-01T07:15:28;93856.47;;;14.10
64470;BMP280;50854;48.538;14.352;2022-09-01T07:16:34;93855.97;;;14.19
64470;BMP280;50854;48.538;14.352;2022-09-01T07:17:38;93859.06;;;14.23
64470;BMP280;50854;48.538;14.352;2022-09-01T07:18:40;93863.00;;;14.22
64470;BMP280;50854;48.538;14.352;2022-09-01T07:19:40;93862.47;;;14.16
64470;BMP280;50854;48.538;14.352;2022-09-01T07:20:41;93855.75;;;14.17
64470;BMP280;50854;48.538;14.352;2022-09-01T07:21:42;93862.47;;;14.16
64470;BMP280;50854;48.538;14.352;2022-09-01T07:22:43;93859.94;;;14.18
64470;BMP280;50854;48.538;14.352;2022-09-01T07:23:44;93871.00;;;14.13
64470;BMP280;50854;48.538;14.352;2022-09-01T07:24:44;93857.16;;;14.03
64470;BMP280;50854;48.538;14.352;2022-09-01T07:25:47;93861.28;;;13.96
64470;BMP280;50854;48.538;14.352;2022-09-01T07:26:48;93857.69;;;14.02
64470;BMP280;50854;48.538;14.352;2022-09-01T07:27:50;93860.97;;;14.00
64470;BMP280;50854;48.538;14.352;2022-09-01T07:28:50;93856.28;;;14.08
64470;BMP280;50854;48.538;14.352;2022-09-01T07:29:51;93868.63;;;14.17
64470;BMP280;50854;48.538;14.352;2022-09-01T07:30:54;93875.94;;;14.29
64470;BMP280;50854;48.538;14.352;2022-09-01T07:31:55;93869.78;;;14.37
64470;BMP280;50854;48.538;14.352;2022-09-01T07:32:56;93868.00;;;14.47
64470;BMP280;50854;48.538;14.352;2022-09-01T07:33:59;93873.97;;;14.53
64470;BMP280;50854;48.538;14.352;2022-09-01T07:35:00;93869.84;;;14.59
64470;BMP280;50854;48.538;14.352;2022-09-01T07:36:00;93876.56;;;14.66
64470;BMP280;50854;48.538;14.352;2022-09-01T07:37:05;93868.03;;;14.77
64470;BMP280;50854;48.538;14.352;2022-09-01T07:38:06;93878.56;;;14.81
64470;BMP280;50854;48.538;14.352;2022-09-01T07:39:10;93874.59;;;14.82